Villanueva del Ariscal, Spain
Current Conditions -  °F | °C
As of 10:00 PM on Thursday 18 Dec 2014 (Local Time) from LEZL Reporting Station
Light Fog Light Fog  
Wind Chill: 48°   Ceiling: Unl
Heat Index: 48°   Visibility: 2.5mi
Dew Point: 46°   Wind: 2mph
Humidity: 93%   Direction: 140°SE
Pressure: 30.36"   Gusts: NA
Location:  37.4°N, 6.14°W
Report Text: LEZL 182100Z 14002KT 4000 1000SW R09/0375N BR PRFG NSC 09/08 Q1028 NOSIG
Loading
Personal Weather Stations






























Interactive Weather Map New forecast layout! Learn more

10-Day Weather Forecast

Advertisements
Track Severe Weather on mobile